<gpx creator="Cyclotour.ca" version="1.1" xmlns:gpsies="http://www.gpsies.com/GPX/1/0" xmlns:xsi="http://www.w3.org/2001/XMLSchema-instance" xmlns="http://www.topografix.com/GPX/1/1" xsi:schemaLocation="http://www.topografix.com/GPX/1/1 http://www.topografix.com/GPX/1/1/gpx.xsd http://www.gpsies.com/GPX/1/0 http://www.gpsies.com/gpsies.xsd">
<trk>
<name>MCC  Amphithéâtre Cogéco/ Champlain</name>
<trkseg>
<trkpt lat="46.348560000" lon="-72.534800000">
<ele>0</ele>
<time>2026-09-04T07:15:08Z</time>
</trkpt>
<trkpt lat="46.350780000" lon="-72.537350000">
<ele>0</ele>
<time>2026-09-04T07:15:09Z</time>
</trkpt>
<trkpt lat="46.351030000" lon="-72.537840000">
<ele>0</ele>
<time>2026-09-04T07:15:10Z</time>
</trkpt>
<trkpt lat="46.351150000" lon="-72.537950000">
<ele>0</ele>
<time>2026-09-04T07:15:11Z</time>
</trkpt>
<trkpt lat="46.351330000" lon="-72.537950000">
<ele>0</ele>
<time>2026-09-04T07:15:12Z</time>
</trkpt>
<trkpt lat="46.351470000" lon="-72.537810000">
<ele>0</ele>
<time>2026-09-04T07:15:13Z</time>
</trkpt>
<trkpt lat="46.351970000" lon="-72.536930000">
<ele>0</ele>
<time>2026-09-04T07:15:14Z</time>
</trkpt>
<trkpt lat="46.352030000" lon="-72.536820000">
<ele>0</ele>
<time>2026-09-04T07:15:15Z</time>
</trkpt>
<trkpt lat="46.352100000" lon="-72.536760000">
<ele>0</ele>
<time>2026-09-04T07:15:16Z</time>
</trkpt>
<trkpt lat="46.352180000" lon="-72.536740000">
<ele>0</ele>
<time>2026-09-04T07:15:17Z</time>
</trkpt>
<trkpt lat="46.352290000" lon="-72.536780000">
<ele>0</ele>
<time>2026-09-04T07:15:18Z</time>
</trkpt>
<trkpt lat="46.352580000" lon="-72.536980000">
<ele>0</ele>
<time>2026-09-04T07:15:19Z</time>
</trkpt>
<trkpt lat="46.352580000" lon="-72.536980000">
<ele>0</ele>
<time>2026-09-04T07:15:20Z</time>
</trkpt>
<trkpt lat="46.353840000" lon="-72.537850000">
<ele>0</ele>
<time>2026-09-04T07:15:21Z</time>
</trkpt>
<trkpt lat="46.354590000" lon="-72.538300000">
<ele>0</ele>
<time>2026-09-04T07:15:22Z</time>
</trkpt>
<trkpt lat="46.355030000" lon="-72.538770000">
<ele>0</ele>
<time>2026-09-04T07:15:23Z</time>
</trkpt>
<trkpt lat="46.355720000" lon="-72.539380000">
<ele>0</ele>
<time>2026-09-04T07:15:24Z</time>
</trkpt>
<trkpt lat="46.356090000" lon="-72.539720000">
<ele>0</ele>
<time>2026-09-04T07:15:25Z</time>
</trkpt>
<trkpt lat="46.356320000" lon="-72.539400000">
<ele>0</ele>
<time>2026-09-04T07:15:26Z</time>
</trkpt>
<trkpt lat="46.356740000" lon="-72.538820000">
<ele>0</ele>
<time>2026-09-04T07:15:27Z</time>
</trkpt>
<trkpt lat="46.357190000" lon="-72.538250000">
<ele>0</ele>
<time>2026-09-04T07:15:28Z</time>
</trkpt>
<trkpt lat="46.357190000" lon="-72.538250000">
<ele>0</ele>
<time>2026-09-04T07:15:29Z</time>
</trkpt>
<trkpt lat="46.360340000" lon="-72.534250000">
<ele>0</ele>
<time>2026-09-04T07:15:30Z</time>
</trkpt>
<trkpt lat="46.362430000" lon="-72.531580000">
<ele>0</ele>
<time>2026-09-04T07:15:31Z</time>
</trkpt>
<trkpt lat="46.363720000" lon="-72.529780000">
<ele>0</ele>
<time>2026-09-04T07:15:32Z</time>
</trkpt>
<trkpt lat="46.363550000" lon="-72.529520000">
<ele>0</ele>
<time>2026-09-04T07:15:33Z</time>
</trkpt>
<trkpt lat="46.363470000" lon="-72.529230000">
<ele>0</ele>
<time>2026-09-04T07:15:34Z</time>
</trkpt>
<trkpt lat="46.363400000" lon="-72.528850000">
<ele>0</ele>
<time>2026-09-04T07:15:35Z</time>
</trkpt>
<trkpt lat="46.363270000" lon="-72.528080000">
<ele>0</ele>
<time>2026-09-04T07:15:36Z</time>
</trkpt>
<trkpt lat="46.363270000" lon="-72.528080000">
<ele>0</ele>
<time>2026-09-04T07:15:37Z</time>
</trkpt>
<trkpt lat="46.363110000" lon="-72.527100000">
<ele>0</ele>
<time>2026-09-04T07:15:38Z</time>
</trkpt>
<trkpt lat="46.362690000" lon="-72.524750000">
<ele>0</ele>
<time>2026-09-04T07:15:39Z</time>
</trkpt>
<trkpt lat="46.362290000" lon="-72.523160000">
<ele>0</ele>
<time>2026-09-04T07:15:40Z</time>
</trkpt>
<trkpt lat="46.362230000" lon="-72.522960000">
<ele>0</ele>
<time>2026-09-04T07:15:41Z</time>
</trkpt>
<trkpt lat="46.361770000" lon="-72.521540000">
<ele>0</ele>
<time>2026-09-04T07:15:42Z</time>
</trkpt>
<trkpt lat="46.361610000" lon="-72.520840000">
<ele>0</ele>
<time>2026-09-04T07:15:43Z</time>
</trkpt>
<trkpt lat="46.361610000" lon="-72.520840000">
<ele>0</ele>
<time>2026-09-04T07:15:44Z</time>
</trkpt>
<trkpt lat="46.361550000" lon="-72.520490000">
<ele>0</ele>
<time>2026-09-04T07:15:45Z</time>
</trkpt>
<trkpt lat="46.361460000" lon="-72.520370000">
<ele>0</ele>
<time>2026-09-04T07:15:46Z</time>
</trkpt>
<trkpt lat="46.361280000" lon="-72.520010000">
<ele>0</ele>
<time>2026-09-04T07:15:47Z</time>
</trkpt>
<trkpt lat="46.361050000" lon="-72.519640000">
<ele>0</ele>
<time>2026-09-04T07:15:48Z</time>
</trkpt>
<trkpt lat="46.360840000" lon="-72.519250000">
<ele>0</ele>
<time>2026-09-04T07:15:49Z</time>
</trkpt>
<trkpt lat="46.360650000" lon="-72.518450000">
<ele>0</ele>
<time>2026-09-04T07:15:50Z</time>
</trkpt>
<trkpt lat="46.360440000" lon="-72.517380000">
<ele>0</ele>
<time>2026-09-04T07:15:51Z</time>
</trkpt>
<trkpt lat="46.360220000" lon="-72.516350000">
<ele>0</ele>
<time>2026-09-04T07:15:52Z</time>
</trkpt>
<trkpt lat="46.360200000" lon="-72.516050000">
<ele>0</ele>
<time>2026-09-04T07:15:53Z</time>
</trkpt>
<trkpt lat="46.360200000" lon="-72.515210000">
<ele>0</ele>
<time>2026-09-04T07:15:54Z</time>
</trkpt>
<trkpt lat="46.360180000" lon="-72.515040000">
<ele>0</ele>
<time>2026-09-04T07:15:55Z</time>
</trkpt>
<trkpt lat="46.360070000" lon="-72.514450000">
<ele>0</ele>
<time>2026-09-04T07:15:56Z</time>
</trkpt>
<trkpt lat="46.359980000" lon="-72.513640000">
<ele>0</ele>
<time>2026-09-04T07:15:57Z</time>
</trkpt>
<trkpt lat="46.359990000" lon="-72.513450000">
<ele>0</ele>
<time>2026-09-04T07:15:58Z</time>
</trkpt>
<trkpt lat="46.359890000" lon="-72.513020000">
<ele>0</ele>
<time>2026-09-04T07:15:59Z</time>
</trkpt>
<trkpt lat="46.359630000" lon="-72.512220000">
<ele>0</ele>
<time>2026-09-04T07:16:00Z</time>
</trkpt>
<trkpt lat="46.359560000" lon="-72.510780000">
<ele>0</ele>
<time>2026-09-04T07:16:01Z</time>
</trkpt>
<trkpt lat="46.359600000" lon="-72.509930000">
<ele>0</ele>
<time>2026-09-04T07:16:02Z</time>
</trkpt>
<trkpt lat="46.359600000" lon="-72.509900000">
<ele>0</ele>
<time>2026-09-04T07:16:03Z</time>
</trkpt>
<trkpt lat="46.359650000" lon="-72.508720000">
<ele>0</ele>
<time>2026-09-04T07:16:04Z</time>
</trkpt>
<trkpt lat="46.359710000" lon="-72.508200000">
<ele>0</ele>
<time>2026-09-04T07:16:05Z</time>
</trkpt>
<trkpt lat="46.360000000" lon="-72.507360000">
<ele>0</ele>
<time>2026-09-04T07:16:06Z</time>
</trkpt>
<trkpt lat="46.360320000" lon="-72.506600000">
<ele>0</ele>
<time>2026-09-04T07:16:07Z</time>
</trkpt>
<trkpt lat="46.361060000" lon="-72.505040000">
<ele>0</ele>
<time>2026-09-04T07:16:08Z</time>
</trkpt>
<trkpt lat="46.361290000" lon="-72.504600000">
<ele>0</ele>
<time>2026-09-04T07:16:09Z</time>
</trkpt>
<trkpt lat="46.361720000" lon="-72.503880000">
<ele>0</ele>
<time>2026-09-04T07:16:10Z</time>
</trkpt>
<trkpt lat="46.361860000" lon="-72.503690000">
<ele>0</ele>
<time>2026-09-04T07:16:11Z</time>
</trkpt>
<trkpt lat="46.362300000" lon="-72.502980000">
<ele>0</ele>
<time>2026-09-04T07:16:12Z</time>
</trkpt>
<trkpt lat="46.362510000" lon="-72.502670000">
<ele>0</ele>
<time>2026-09-04T07:16:13Z</time>
</trkpt>
<trkpt lat="46.362620000" lon="-72.502550000">
<ele>0</ele>
<time>2026-09-04T07:16:15Z</time>
</trkpt>
<trkpt lat="46.362970000" lon="-72.502250000">
<ele>0</ele>
<time>2026-09-04T07:16:16Z</time>
</trkpt>
<trkpt lat="46.364490000" lon="-72.501330000">
<ele>0</ele>
<time>2026-09-04T07:16:17Z</time>
</trkpt>
<trkpt lat="46.364770000" lon="-72.501220000">
<ele>0</ele>
<time>2026-09-04T07:16:18Z</time>
</trkpt>
<trkpt lat="46.366140000" lon="-72.501250000">
<ele>0</ele>
<time>2026-09-04T07:16:19Z</time>
</trkpt>
<trkpt lat="46.366400000" lon="-72.501220000">
<ele>0</ele>
<time>2026-09-04T07:16:20Z</time>
</trkpt>
<trkpt lat="46.366580000" lon="-72.501160000">
<ele>0</ele>
<time>2026-09-04T07:16:21Z</time>
</trkpt>
<trkpt lat="46.366690000" lon="-72.501100000">
<ele>0</ele>
<time>2026-09-04T07:16:22Z</time>
</trkpt>
<trkpt lat="46.366930000" lon="-72.500850000">
<ele>0</ele>
<time>2026-09-04T07:16:23Z</time>
</trkpt>
<trkpt lat="46.367710000" lon="-72.499930000">
<ele>0</ele>
<time>2026-09-04T07:16:24Z</time>
</trkpt>
<trkpt lat="46.367890000" lon="-72.499710000">
<ele>0</ele>
<time>2026-09-04T07:16:25Z</time>
</trkpt>
<trkpt lat="46.367890000" lon="-72.499710000">
<ele>0</ele>
<time>2026-09-04T07:16:26Z</time>
</trkpt>
<trkpt lat="46.368280000" lon="-72.499230000">
<ele>0</ele>
<time>2026-09-04T07:16:27Z</time>
</trkpt>
<trkpt lat="46.368510000" lon="-72.499050000">
<ele>0</ele>
<time>2026-09-04T07:16:28Z</time>
</trkpt>
<trkpt lat="46.368800000" lon="-72.498860000">
<ele>0</ele>
<time>2026-09-04T07:16:29Z</time>
</trkpt>
<trkpt lat="46.369600000" lon="-72.498420000">
<ele>0</ele>
<time>2026-09-04T07:16:30Z</time>
</trkpt>
<trkpt lat="46.370110000" lon="-72.498180000">
<ele>0</ele>
<time>2026-09-04T07:16:31Z</time>
</trkpt>
<trkpt lat="46.370360000" lon="-72.498090000">
<ele>0</ele>
<time>2026-09-04T07:16:32Z</time>
</trkpt>
<trkpt lat="46.371020000" lon="-72.497960000">
<ele>0</ele>
<time>2026-09-04T07:16:33Z</time>
</trkpt>
<trkpt lat="46.371210000" lon="-72.497900000">
<ele>0</ele>
<time>2026-09-04T07:16:34Z</time>
</trkpt>
<trkpt lat="46.371370000" lon="-72.497830000">
<ele>0</ele>
<time>2026-09-04T07:16:35Z</time>
</trkpt>
<trkpt lat="46.371640000" lon="-72.497620000">
<ele>0</ele>
<time>2026-09-04T07:16:36Z</time>
</trkpt>
<trkpt lat="46.371940000" lon="-72.497310000">
<ele>0</ele>
<time>2026-09-04T07:16:37Z</time>
</trkpt>
<trkpt lat="46.372520000" lon="-72.496480000">
<ele>0</ele>
<time>2026-09-04T07:16:38Z</time>
</trkpt>
<trkpt lat="46.372860000" lon="-72.495930000">
<ele>0</ele>
<time>2026-09-04T07:16:39Z</time>
</trkpt>
<trkpt lat="46.372990000" lon="-72.495770000">
<ele>0</ele>
<time>2026-09-04T07:16:40Z</time>
</trkpt>
<trkpt lat="46.373900000" lon="-72.494850000">
<ele>0</ele>
<time>2026-09-04T07:16:41Z</time>
</trkpt>
<trkpt lat="46.374370000" lon="-72.494330000">
<ele>0</ele>
<time>2026-09-04T07:16:42Z</time>
</trkpt>
<trkpt lat="46.374630000" lon="-72.494060000">
<ele>0</ele>
<time>2026-09-04T07:16:43Z</time>
</trkpt>
<trkpt lat="46.374950000" lon="-72.493790000">
<ele>0</ele>
<time>2026-09-04T07:16:44Z</time>
</trkpt>
<trkpt lat="46.376110000" lon="-72.492950000">
<ele>0</ele>
<time>2026-09-04T07:16:45Z</time>
</trkpt>
<trkpt lat="46.376220000" lon="-72.492710000">
<ele>0</ele>
<time>2026-09-04T07:16:46Z</time>
</trkpt>
<trkpt lat="46.376790000" lon="-72.491810000">
<ele>0</ele>
<time>2026-09-04T07:16:47Z</time>
</trkpt>
<trkpt lat="46.377640000" lon="-72.490590000">
<ele>0</ele>
<time>2026-09-04T07:16:48Z</time>
</trkpt>
<trkpt lat="46.377950000" lon="-72.490230000">
<ele>0</ele>
<time>2026-09-04T07:16:49Z</time>
</trkpt>
<trkpt lat="46.377950000" lon="-72.490230000">
<ele>0</ele>
<time>2026-09-04T07:16:50Z</time>
</trkpt>
<trkpt lat="46.380100000" lon="-72.487870000">
<ele>0</ele>
<time>2026-09-04T07:16:51Z</time>
</trkpt>
<trkpt lat="46.380740000" lon="-72.487050000">
<ele>0</ele>
<time>2026-09-04T07:16:52Z</time>
</trkpt>
<trkpt lat="46.381310000" lon="-72.486110000">
<ele>0</ele>
<time>2026-09-04T07:16:53Z</time>
</trkpt>
<trkpt lat="46.381910000" lon="-72.485100000">
<ele>0</ele>
<time>2026-09-04T07:16:54Z</time>
</trkpt>
<trkpt lat="46.383440000" lon="-72.482510000">
<ele>0</ele>
<time>2026-09-04T07:16:55Z</time>
</trkpt>
<trkpt lat="46.385390000" lon="-72.479250000">
<ele>0</ele>
<time>2026-09-04T07:16:56Z</time>
</trkpt>
<trkpt lat="46.386200000" lon="-72.477880000">
<ele>0</ele>
<time>2026-09-04T07:16:57Z</time>
</trkpt>
<trkpt lat="46.389590000" lon="-72.472200000">
<ele>0</ele>
<time>2026-09-04T07:16:58Z</time>
</trkpt>
<trkpt lat="46.391840000" lon="-72.468720000">
<ele>0</ele>
<time>2026-09-04T07:16:59Z</time>
</trkpt>
<trkpt lat="46.393410000" lon="-72.466220000">
<ele>0</ele>
<time>2026-09-04T07:17:00Z</time>
</trkpt>
<trkpt lat="46.393790000" lon="-72.465570000">
<ele>0</ele>
<time>2026-09-04T07:17:01Z</time>
</trkpt>
<trkpt lat="46.393990000" lon="-72.465120000">
<ele>0</ele>
<time>2026-09-04T07:17:02Z</time>
</trkpt>
<trkpt lat="46.394190000" lon="-72.464620000">
<ele>0</ele>
<time>2026-09-04T07:17:03Z</time>
</trkpt>
<trkpt lat="46.394350000" lon="-72.464110000">
<ele>0</ele>
<time>2026-09-04T07:17:04Z</time>
</trkpt>
<trkpt lat="46.394660000" lon="-72.462820000">
<ele>0</ele>
<time>2026-09-04T07:17:05Z</time>
</trkpt>
<trkpt lat="46.395130000" lon="-72.460340000">
<ele>0</ele>
<time>2026-09-04T07:17:06Z</time>
</trkpt>
<trkpt lat="46.395190000" lon="-72.459660000">
<ele>0</ele>
<time>2026-09-04T07:17:07Z</time>
</trkpt>
<trkpt lat="46.395210000" lon="-72.458830000">
<ele>0</ele>
<time>2026-09-04T07:17:08Z</time>
</trkpt>
<trkpt lat="46.395180000" lon="-72.456340000">
<ele>0</ele>
<time>2026-09-04T07:17:09Z</time>
</trkpt>
<trkpt lat="46.395200000" lon="-72.455950000">
<ele>0</ele>
<time>2026-09-04T07:17:10Z</time>
</trkpt>
<trkpt lat="46.395260000" lon="-72.455270000">
<ele>0</ele>
<time>2026-09-04T07:17:11Z</time>
</trkpt>
<trkpt lat="46.395470000" lon="-72.454030000">
<ele>0</ele>
<time>2026-09-04T07:17:12Z</time>
</trkpt>
<trkpt lat="46.395910000" lon="-72.451390000">
<ele>0</ele>
<time>2026-09-04T07:17:13Z</time>
</trkpt>
<trkpt lat="46.395910000" lon="-72.451390000">
<ele>0</ele>
<time>2026-09-04T07:17:14Z</time>
</trkpt>
<trkpt lat="46.396320000" lon="-72.448880000">
<ele>0</ele>
<time>2026-09-04T07:17:15Z</time>
</trkpt>
<trkpt lat="46.396790000" lon="-72.449250000">
<ele>0</ele>
<time>2026-09-04T07:17:16Z</time>
</trkpt>
<trkpt lat="46.396880000" lon="-72.449340000">
<ele>0</ele>
<time>2026-09-04T07:17:17Z</time>
</trkpt>
<trkpt lat="46.396880000" lon="-72.449340000">
<ele>0</ele>
<time>2026-09-04T07:17:18Z</time>
</trkpt>
<trkpt lat="46.397040000" lon="-72.449530000">
<ele>0</ele>
<time>2026-09-04T07:17:19Z</time>
</trkpt>
<trkpt lat="46.398610000" lon="-72.451760000">
<ele>0</ele>
<time>2026-09-04T07:17:20Z</time>
</trkpt>
<trkpt lat="46.404050000" lon="-72.459530000">
<ele>0</ele>
<time>2026-09-04T07:17:21Z</time>
</trkpt>
<trkpt lat="46.409630000" lon="-72.467360000">
<ele>0</ele>
<time>2026-09-04T07:17:22Z</time>
</trkpt>
<trkpt lat="46.410840000" lon="-72.468940000">
<ele>0</ele>
<time>2026-09-04T07:17:23Z</time>
</trkpt>
<trkpt lat="46.411110000" lon="-72.467900000">
<ele>0</ele>
<time>2026-09-04T07:17:24Z</time>
</trkpt>
<trkpt lat="46.411530000" lon="-72.466680000">
<ele>0</ele>
<time>2026-09-04T07:17:25Z</time>
</trkpt>
<trkpt lat="46.411530000" lon="-72.466680000">
<ele>0</ele>
<time>2026-09-04T07:17:26Z</time>
</trkpt>
<trkpt lat="46.412240000" lon="-72.464770000">
<ele>0</ele>
<time>2026-09-04T07:17:27Z</time>
</trkpt>
<trkpt lat="46.412700000" lon="-72.463720000">
<ele>0</ele>
<time>2026-09-04T07:17:28Z</time>
</trkpt>
<trkpt lat="46.413200000" lon="-72.462700000">
<ele>0</ele>
<time>2026-09-04T07:17:29Z</time>
</trkpt>
<trkpt lat="46.414100000" lon="-72.461000000">
<ele>0</ele>
<time>2026-09-04T07:17:30Z</time>
</trkpt>
<trkpt lat="46.415320000" lon="-72.458980000">
<ele>0</ele>
<time>2026-09-04T07:17:31Z</time>
</trkpt>
<trkpt lat="46.415570000" lon="-72.458640000">
<ele>0</ele>
<time>2026-09-04T07:17:32Z</time>
</trkpt>
<trkpt lat="46.416080000" lon="-72.458160000">
<ele>0</ele>
<time>2026-09-04T07:17:33Z</time>
</trkpt>
<trkpt lat="46.416740000" lon="-72.457570000">
<ele>0</ele>
<time>2026-09-04T07:17:34Z</time>
</trkpt>
<trkpt lat="46.417210000" lon="-72.457070000">
<ele>0</ele>
<time>2026-09-04T07:17:35Z</time>
</trkpt>
<trkpt lat="46.417550000" lon="-72.456560000">
<ele>0</ele>
<time>2026-09-04T07:17:36Z</time>
</trkpt>
<trkpt lat="46.420630000" lon="-72.450600000">
<ele>0</ele>
<time>2026-09-04T07:17:37Z</time>
</trkpt>
<trkpt lat="46.420700000" lon="-72.450390000">
<ele>0</ele>
<time>2026-09-04T07:17:38Z</time>
</trkpt>
<trkpt lat="46.420740000" lon="-72.450220000">
<ele>0</ele>
<time>2026-09-04T07:17:39Z</time>
</trkpt>
<trkpt lat="46.420710000" lon="-72.450000000">
<ele>0</ele>
<time>2026-09-04T07:17:40Z</time>
</trkpt>
<trkpt lat="46.420410000" lon="-72.449570000">
<ele>0</ele>
<time>2026-09-04T07:17:41Z</time>
</trkpt>
<trkpt lat="46.420070000" lon="-72.449060000">
<ele>0</ele>
<time>2026-09-04T07:17:42Z</time>
</trkpt>
<trkpt lat="46.420050000" lon="-72.448930000">
<ele>0</ele>
<time>2026-09-04T07:17:43Z</time>
</trkpt>
<trkpt lat="46.420040000" lon="-72.448720000">
<ele>0</ele>
<time>2026-09-04T07:17:44Z</time>
</trkpt>
<trkpt lat="46.420110000" lon="-72.448470000">
<ele>0</ele>
<time>2026-09-04T07:17:45Z</time>
</trkpt>
<trkpt lat="46.420660000" lon="-72.447170000">
<ele>0</ele>
<time>2026-09-04T07:17:46Z</time>
</trkpt>
<trkpt lat="46.421420000" lon="-72.445660000">
<ele>0</ele>
<time>2026-09-04T07:17:47Z</time>
</trkpt>
<trkpt lat="46.421580000" lon="-72.445230000">
<ele>0</ele>
<time>2026-09-04T07:17:48Z</time>
</trkpt>
<trkpt lat="46.424550000" lon="-72.438170000">
<ele>0</ele>
<time>2026-09-04T07:17:49Z</time>
</trkpt>
<trkpt lat="46.425280000" lon="-72.436490000">
<ele>0</ele>
<time>2026-09-04T07:17:50Z</time>
</trkpt>
<trkpt lat="46.425510000" lon="-72.435830000">
<ele>0</ele>
<time>2026-09-04T07:17:51Z</time>
</trkpt>
<trkpt lat="46.425800000" lon="-72.434890000">
<ele>0</ele>
<time>2026-09-04T07:17:52Z</time>
</trkpt>
<trkpt lat="46.426190000" lon="-72.433420000">
<ele>0</ele>
<time>2026-09-04T07:17:53Z</time>
</trkpt>
<trkpt lat="46.427250000" lon="-72.429550000">
<ele>0</ele>
<time>2026-09-04T07:17:54Z</time>
</trkpt>
<trkpt lat="46.427250000" lon="-72.429550000">
<ele>0</ele>
<time>2026-09-04T07:17:55Z</time>
</trkpt>
<trkpt lat="46.428850000" lon="-72.422750000">
<ele>0</ele>
<time>2026-09-04T07:17:56Z</time>
</trkpt>
<trkpt lat="46.429310000" lon="-72.420710000">
<ele>0</ele>
<time>2026-09-04T07:17:57Z</time>
</trkpt>
<trkpt lat="46.429310000" lon="-72.420710000">
<ele>0</ele>
<time>2026-09-04T07:17:58Z</time>
</trkpt>
<trkpt lat="46.429590000" lon="-72.419560000">
<ele>0</ele>
<time>2026-09-04T07:17:59Z</time>
</trkpt>
<trkpt lat="46.429860000" lon="-72.418730000">
<ele>0</ele>
<time>2026-09-04T07:18:00Z</time>
</trkpt>
<trkpt lat="46.431330000" lon="-72.414860000">
<ele>0</ele>
<time>2026-09-04T07:18:01Z</time>
</trkpt>
<trkpt lat="46.431840000" lon="-72.413670000">
<ele>0</ele>
<time>2026-09-04T07:18:02Z</time>
</trkpt>
<trkpt lat="46.432030000" lon="-72.413350000">
<ele>0</ele>
<time>2026-09-04T07:18:03Z</time>
</trkpt>
<trkpt lat="46.432230000" lon="-72.413080000">
<ele>0</ele>
<time>2026-09-04T07:18:04Z</time>
</trkpt>
<trkpt lat="46.433470000" lon="-72.411430000">
<ele>0</ele>
<time>2026-09-04T07:18:05Z</time>
</trkpt>
<trkpt lat="46.435110000" lon="-72.409380000">
<ele>0</ele>
<time>2026-09-04T07:18:06Z</time>
</trkpt>
<trkpt lat="46.435840000" lon="-72.408210000">
<ele>0</ele>
<time>2026-09-04T07:18:07Z</time>
</trkpt>
<trkpt lat="46.437100000" lon="-72.406010000">
<ele>0</ele>
<time>2026-09-04T07:18:08Z</time>
</trkpt>
<trkpt lat="46.438900000" lon="-72.403100000">
<ele>0</ele>
<time>2026-09-04T07:18:09Z</time>
</trkpt>
<trkpt lat="46.439640000" lon="-72.401800000">
<ele>0</ele>
<time>2026-09-04T07:18:10Z</time>
</trkpt>
<trkpt lat="46.440020000" lon="-72.401100000">
<ele>0</ele>
<time>2026-09-04T07:18:11Z</time>
</trkpt>
<trkpt lat="46.440310000" lon="-72.400690000">
<ele>0</ele>
<time>2026-09-04T07:18:12Z</time>
</trkpt>
<trkpt lat="46.440720000" lon="-72.400190000">
<ele>0</ele>
<time>2026-09-04T07:18:13Z</time>
</trkpt>
<trkpt lat="46.440880000" lon="-72.400060000">
<ele>0</ele>
<time>2026-09-04T07:18:14Z</time>
</trkpt>
<trkpt lat="46.440990000" lon="-72.399980000">
<ele>0</ele>
<time>2026-09-04T07:18:15Z</time>
</trkpt>
<trkpt lat="46.441060000" lon="-72.399920000">
<ele>0</ele>
<time>2026-09-04T07:18:16Z</time>
</trkpt>
<trkpt lat="46.441150000" lon="-72.399770000">
<ele>0</ele>
<time>2026-09-04T07:18:17Z</time>
</trkpt>
<trkpt lat="46.441710000" lon="-72.398180000">
<ele>0</ele>
<time>2026-09-04T07:18:18Z</time>
</trkpt>
<trkpt lat="46.442890000" lon="-72.395060000">
<ele>0</ele>
<time>2026-09-04T07:18:19Z</time>
</trkpt>
<trkpt lat="46.443020000" lon="-72.394820000">
<ele>0</ele>
<time>2026-09-04T07:18:20Z</time>
</trkpt>
<trkpt lat="46.443020000" lon="-72.394820000">
<ele>0</ele>
<time>2026-09-04T07:18:21Z</time>
</trkpt>
<trkpt lat="46.443270000" lon="-72.394350000">
<ele>0</ele>
<time>2026-09-04T07:18:22Z</time>
</trkpt>
<trkpt lat="46.443940000" lon="-72.393450000">
<ele>0</ele>
<time>2026-09-04T07:18:23Z</time>
</trkpt>
<trkpt lat="46.444410000" lon="-72.392890000">
<ele>0</ele>
<time>2026-09-04T07:18:24Z</time>
</trkpt>
<trkpt lat="46.444750000" lon="-72.392440000">
<ele>0</ele>
<time>2026-09-04T07:18:25Z</time>
</trkpt>
<trkpt lat="46.444330000" lon="-72.391800000">
<ele>0</ele>
<time>2026-09-04T07:18:26Z</time>
</trkpt>
<trkpt lat="46.443410000" lon="-72.390490000">
<ele>0</ele>
<time>2026-09-04T07:18:27Z</time>
</trkpt>
<trkpt lat="46.443410000" lon="-72.390490000">
<ele>0</ele>
<time>2026-09-04T07:18:28Z</time>
</trkpt>
<trkpt lat="46.439450000" lon="-72.384910000">
<ele>0</ele>
<time>2026-09-04T07:18:29Z</time>
</trkpt>
<trkpt lat="46.437060000" lon="-72.381630000">
<ele>0</ele>
<time>2026-09-04T07:18:30Z</time>
</trkpt>
<trkpt lat="46.434960000" lon="-72.378620000">
<ele>0</ele>
<time>2026-09-04T07:18:31Z</time>
</trkpt>
<trkpt lat="46.431510000" lon="-72.373790000">
<ele>0</ele>
<time>2026-09-04T07:18:32Z</time>
</trkpt>
<trkpt lat="46.429280000" lon="-72.370760000">
<ele>0</ele>
<time>2026-09-04T07:18:33Z</time>
</trkpt>
<trkpt lat="46.428570000" lon="-72.369790000">
<ele>0</ele>
<time>2026-09-04T07:18:34Z</time>
</trkpt>
<trkpt lat="46.428940000" lon="-72.369240000">
<ele>0</ele>
<time>2026-09-04T07:18:35Z</time>
</trkpt>
<trkpt lat="46.429430000" lon="-72.368510000">
<ele>0</ele>
<time>2026-09-04T07:18:36Z</time>
</trkpt>
<trkpt lat="46.430080000" lon="-72.367540000">
<ele>0</ele>
<time>2026-09-04T07:18:37Z</time>
</trkpt>
<trkpt lat="46.431200000" lon="-72.365850000">
<ele>0</ele>
<time>2026-09-04T07:18:38Z</time>
</trkpt>
<trkpt lat="46.431200000" lon="-72.365850000">
<ele>0</ele>
<time>2026-09-04T07:18:39Z</time>
</trkpt>
<trkpt lat="46.431540000" lon="-72.365300000">
<ele>0</ele>
<time>2026-09-04T07:18:40Z</time>
</trkpt>
<trkpt lat="46.431790000" lon="-72.364840000">
<ele>0</ele>
<time>2026-09-04T07:18:41Z</time>
</trkpt>
<trkpt lat="46.432080000" lon="-72.364220000">
<ele>0</ele>
<time>2026-09-04T07:18:42Z</time>
</trkpt>
<trkpt lat="46.432480000" lon="-72.363290000">
<ele>0</ele>
<time>2026-09-04T07:18:43Z</time>
</trkpt>
<trkpt lat="46.432890000" lon="-72.362350000">
<ele>0</ele>
<time>2026-09-04T07:18:44Z</time>
</trkpt>
<trkpt lat="46.433190000" lon="-72.361710000">
<ele>0</ele>
<time>2026-09-04T07:18:45Z</time>
</trkpt>
<trkpt lat="46.434620000" lon="-72.359040000">
<ele>0</ele>
<time>2026-09-04T07:18:46Z</time>
</trkpt>
<trkpt lat="46.436240000" lon="-72.355900000">
<ele>0</ele>
<time>2026-09-04T07:18:47Z</time>
</trkpt>
<trkpt lat="46.436600000" lon="-72.355170000">
<ele>0</ele>
<time>2026-09-04T07:18:48Z</time>
</trkpt>
<trkpt lat="46.436820000" lon="-72.354640000">
<ele>0</ele>
<time>2026-09-04T07:18:49Z</time>
</trkpt>
<trkpt lat="46.437130000" lon="-72.353750000">
<ele>0</ele>
<time>2026-09-04T07:18:50Z</time>
</trkpt>
<trkpt lat="46.437370000" lon="-72.352990000">
<ele>0</ele>
<time>2026-09-04T07:18:51Z</time>
</trkpt>
<trkpt lat="46.437650000" lon="-72.352300000">
<ele>0</ele>
<time>2026-09-04T07:18:52Z</time>
</trkpt>
<trkpt lat="46.437970000" lon="-72.351610000">
<ele>0</ele>
<time>2026-09-04T07:18:53Z</time>
</trkpt>
<trkpt lat="46.438320000" lon="-72.351010000">
<ele>0</ele>
<time>2026-09-04T07:18:54Z</time>
</trkpt>
<trkpt lat="46.439040000" lon="-72.349920000">
<ele>0</ele>
<time>2026-09-04T07:18:55Z</time>
</trkpt>
<trkpt lat="46.439040000" lon="-72.349920000">
<ele>0</ele>
<time>2026-09-04T07:18:56Z</time>
</trkpt>
<trkpt lat="46.439290000" lon="-72.349450000">
<ele>0</ele>
<time>2026-09-04T07:18:57Z</time>
</trkpt>
<trkpt lat="46.439550000" lon="-72.348880000">
<ele>0</ele>
<time>2026-09-04T07:18:58Z</time>
</trkpt>
<trkpt lat="46.440040000" lon="-72.347680000">
<ele>0</ele>
<time>2026-09-04T07:18:59Z</time>
</trkpt>
<trkpt lat="46.440460000" lon="-72.346610000">
<ele>0</ele>
<time>2026-09-04T07:19:00Z</time>
</trkpt>
<trkpt lat="46.440570000" lon="-72.346270000">
<ele>0</ele>
<time>2026-09-04T07:19:01Z</time>
</trkpt>
<trkpt lat="46.440720000" lon="-72.345700000">
<ele>0</ele>
<time>2026-09-04T07:19:02Z</time>
</trkpt>
<trkpt lat="46.440840000" lon="-72.345010000">
<ele>0</ele>
<time>2026-09-04T07:19:03Z</time>
</trkpt>
<trkpt lat="46.441170000" lon="-72.342250000">
<ele>0</ele>
<time>2026-09-04T07:19:04Z</time>
</trkpt>
<trkpt lat="46.441170000" lon="-72.342250000">
<ele>0</ele>
<time>2026-09-04T07:19:05Z</time>
</trkpt>
<trkpt lat="46.441430000" lon="-72.339870000">
<ele>0</ele>
<time>2026-09-04T07:19:06Z</time>
</trkpt>
<trkpt lat="46.441560000" lon="-72.338830000">
<ele>0</ele>
<time>2026-09-04T07:19:07Z</time>
</trkpt>
<trkpt lat="46.441840000" lon="-72.337020000">
<ele>0</ele>
<time>2026-09-04T07:19:08Z</time>
</trkpt>
<trkpt lat="46.441840000" lon="-72.337020000">
<ele>0</ele>
<time>2026-09-04T07:19:09Z</time>
</trkpt>
<trkpt lat="46.441600000" lon="-72.338560000">
<ele>0</ele>
<time>2026-09-04T07:19:10Z</time>
</trkpt>
<trkpt lat="46.441450000" lon="-72.339640000">
<ele>0</ele>
<time>2026-09-04T07:19:11Z</time>
</trkpt>
<trkpt lat="46.441180000" lon="-72.342140000">
<ele>0</ele>
<time>2026-09-04T07:19:12Z</time>
</trkpt>
<trkpt lat="46.440840000" lon="-72.345010000">
<ele>0</ele>
<time>2026-09-04T07:19:13Z</time>
</trkpt>
<trkpt lat="46.440720000" lon="-72.345700000">
<ele>0</ele>
<time>2026-09-04T07:19:14Z</time>
</trkpt>
<trkpt lat="46.440570000" lon="-72.346270000">
<ele>0</ele>
<time>2026-09-04T07:19:15Z</time>
</trkpt>
<trkpt lat="46.440460000" lon="-72.346610000">
<ele>0</ele>
<time>2026-09-04T07:19:16Z</time>
</trkpt>
<trkpt lat="46.440160000" lon="-72.347360000">
<ele>0</ele>
<time>2026-09-04T07:19:17Z</time>
</trkpt>
<trkpt lat="46.440160000" lon="-72.347360000">
<ele>0</ele>
<time>2026-09-04T07:19:18Z</time>
</trkpt>
<trkpt lat="46.439640000" lon="-72.348680000">
<ele>0</ele>
<time>2026-09-04T07:19:19Z</time>
</trkpt>
<trkpt lat="46.439410000" lon="-72.349200000">
<ele>0</ele>
<time>2026-09-04T07:19:20Z</time>
</trkpt>
<trkpt lat="46.439120000" lon="-72.349780000">
<ele>0</ele>
<time>2026-09-04T07:19:21Z</time>
</trkpt>
<trkpt lat="46.438900000" lon="-72.350150000">
<ele>0</ele>
<time>2026-09-04T07:19:22Z</time>
</trkpt>
<trkpt lat="46.438170000" lon="-72.351250000">
<ele>0</ele>
<time>2026-09-04T07:19:23Z</time>
</trkpt>
<trkpt lat="46.437780000" lon="-72.351990000">
<ele>0</ele>
<time>2026-09-04T07:19:24Z</time>
</trkpt>
<trkpt lat="46.437540000" lon="-72.352560000">
<ele>0</ele>
<time>2026-09-04T07:19:25Z</time>
</trkpt>
<trkpt lat="46.437270000" lon="-72.353320000">
<ele>0</ele>
<time>2026-09-04T07:19:26Z</time>
</trkpt>
<trkpt lat="46.437050000" lon="-72.353980000">
<ele>0</ele>
<time>2026-09-04T07:19:27Z</time>
</trkpt>
<trkpt lat="46.436760000" lon="-72.354780000">
<ele>0</ele>
<time>2026-09-04T07:19:28Z</time>
</trkpt>
<trkpt lat="46.436550000" lon="-72.355290000">
<ele>0</ele>
<time>2026-09-04T07:19:29Z</time>
</trkpt>
<trkpt lat="46.435920000" lon="-72.356540000">
<ele>0</ele>
<time>2026-09-04T07:19:30Z</time>
</trkpt>
<trkpt lat="46.434100000" lon="-72.360000000">
<ele>0</ele>
<time>2026-09-04T07:19:31Z</time>
</trkpt>
<trkpt lat="46.433400000" lon="-72.361300000">
<ele>0</ele>
<time>2026-09-04T07:19:32Z</time>
</trkpt>
<trkpt lat="46.433010000" lon="-72.362080000">
<ele>0</ele>
<time>2026-09-04T07:19:33Z</time>
</trkpt>
<trkpt lat="46.432250000" lon="-72.363840000">
<ele>0</ele>
<time>2026-09-04T07:19:34Z</time>
</trkpt>
<trkpt lat="46.431930000" lon="-72.364560000">
<ele>0</ele>
<time>2026-09-04T07:19:35Z</time>
</trkpt>
<trkpt lat="46.431670000" lon="-72.365060000">
<ele>0</ele>
<time>2026-09-04T07:19:36Z</time>
</trkpt>
<trkpt lat="46.431370000" lon="-72.365600000">
<ele>0</ele>
<time>2026-09-04T07:19:37Z</time>
</trkpt>
<trkpt lat="46.430760000" lon="-72.366530000">
<ele>0</ele>
<time>2026-09-04T07:19:38Z</time>
</trkpt>
<trkpt lat="46.429430000" lon="-72.368510000">
<ele>0</ele>
<time>2026-09-04T07:19:39Z</time>
</trkpt>
<trkpt lat="46.428460000" lon="-72.369950000">
<ele>0</ele>
<time>2026-09-04T07:19:40Z</time>
</trkpt>
<trkpt lat="46.428160000" lon="-72.370430000">
<ele>0</ele>
<time>2026-09-04T07:19:41Z</time>
</trkpt>
<trkpt lat="46.427800000" lon="-72.371050000">
<ele>0</ele>
<time>2026-09-04T07:19:42Z</time>
</trkpt>
<trkpt lat="46.427110000" lon="-72.372290000">
<ele>0</ele>
<time>2026-09-04T07:19:43Z</time>
</trkpt>
<trkpt lat="46.425910000" lon="-72.374550000">
<ele>0</ele>
<time>2026-09-04T07:19:44Z</time>
</trkpt>
<trkpt lat="46.424500000" lon="-72.377200000">
<ele>0</ele>
<time>2026-09-04T07:19:45Z</time>
</trkpt>
<trkpt lat="46.422030000" lon="-72.381800000">
<ele>0</ele>
<time>2026-09-04T07:19:46Z</time>
</trkpt>
<trkpt lat="46.421600000" lon="-72.382630000">
<ele>0</ele>
<time>2026-09-04T07:19:47Z</time>
</trkpt>
<trkpt lat="46.421100000" lon="-72.383680000">
<ele>0</ele>
<time>2026-09-04T07:19:48Z</time>
</trkpt>
<trkpt lat="46.420520000" lon="-72.385010000">
<ele>0</ele>
<time>2026-09-04T07:19:49Z</time>
</trkpt>
<trkpt lat="46.420020000" lon="-72.386280000">
<ele>0</ele>
<time>2026-09-04T07:19:50Z</time>
</trkpt>
<trkpt lat="46.419870000" lon="-72.386670000">
<ele>0</ele>
<time>2026-09-04T07:19:51Z</time>
</trkpt>
<trkpt lat="46.419760000" lon="-72.386900000">
<ele>0</ele>
<time>2026-09-04T07:19:52Z</time>
</trkpt>
<trkpt lat="46.418780000" lon="-72.389410000">
<ele>0</ele>
<time>2026-09-04T07:19:53Z</time>
</trkpt>
<trkpt lat="46.418560000" lon="-72.389950000">
<ele>0</ele>
<time>2026-09-04T07:19:54Z</time>
</trkpt>
<trkpt lat="46.418140000" lon="-72.390900000">
<ele>0</ele>
<time>2026-09-04T07:19:55Z</time>
</trkpt>
<trkpt lat="46.417300000" lon="-72.392610000">
<ele>0</ele>
<time>2026-09-04T07:19:56Z</time>
</trkpt>
<trkpt lat="46.416440000" lon="-72.394410000">
<ele>0</ele>
<time>2026-09-04T07:19:57Z</time>
</trkpt>
<trkpt lat="46.415950000" lon="-72.395590000">
<ele>0</ele>
<time>2026-09-04T07:19:58Z</time>
</trkpt>
<trkpt lat="46.415030000" lon="-72.397970000">
<ele>0</ele>
<time>2026-09-04T07:19:59Z</time>
</trkpt>
<trkpt lat="46.414860000" lon="-72.398470000">
<ele>0</ele>
<time>2026-09-04T07:20:00Z</time>
</trkpt>
<trkpt lat="46.414670000" lon="-72.399110000">
<ele>0</ele>
<time>2026-09-04T07:20:01Z</time>
</trkpt>
<trkpt lat="46.414230000" lon="-72.400890000">
<ele>0</ele>
<time>2026-09-04T07:20:02Z</time>
</trkpt>
<trkpt lat="46.413720000" lon="-72.403150000">
<ele>0</ele>
<time>2026-09-04T07:20:03Z</time>
</trkpt>
<trkpt lat="46.413500000" lon="-72.404310000">
<ele>0</ele>
<time>2026-09-04T07:20:04Z</time>
</trkpt>
<trkpt lat="46.413370000" lon="-72.405610000">
<ele>0</ele>
<time>2026-09-04T07:20:05Z</time>
</trkpt>
<trkpt lat="46.413050000" lon="-72.410810000">
<ele>0</ele>
<time>2026-09-04T07:20:06Z</time>
</trkpt>
<trkpt lat="46.412760000" lon="-72.415560000">
<ele>0</ele>
<time>2026-09-04T07:20:07Z</time>
</trkpt>
<trkpt lat="46.412680000" lon="-72.416610000">
<ele>0</ele>
<time>2026-09-04T07:20:08Z</time>
</trkpt>
<trkpt lat="46.412590000" lon="-72.417170000">
<ele>0</ele>
<time>2026-09-04T07:20:09Z</time>
</trkpt>
<trkpt lat="46.412470000" lon="-72.417700000">
<ele>0</ele>
<time>2026-09-04T07:20:10Z</time>
</trkpt>
<trkpt lat="46.412270000" lon="-72.418260000">
<ele>0</ele>
<time>2026-09-04T07:20:11Z</time>
</trkpt>
<trkpt lat="46.412040000" lon="-72.418740000">
<ele>0</ele>
<time>2026-09-04T07:20:12Z</time>
</trkpt>
<trkpt lat="46.411750000" lon="-72.419230000">
<ele>0</ele>
<time>2026-09-04T07:20:13Z</time>
</trkpt>
<trkpt lat="46.410780000" lon="-72.420810000">
<ele>0</ele>
<time>2026-09-04T07:20:14Z</time>
</trkpt>
<trkpt lat="46.410160000" lon="-72.421930000">
<ele>0</ele>
<time>2026-09-04T07:20:15Z</time>
</trkpt>
<trkpt lat="46.409730000" lon="-72.422820000">
<ele>0</ele>
<time>2026-09-04T07:20:16Z</time>
</trkpt>
<trkpt lat="46.408440000" lon="-72.425600000">
<ele>0</ele>
<time>2026-09-04T07:20:17Z</time>
</trkpt>
<trkpt lat="46.407790000" lon="-72.427100000">
<ele>0</ele>
<time>2026-09-04T07:20:18Z</time>
</trkpt>
<trkpt lat="46.406630000" lon="-72.429970000">
<ele>0</ele>
<time>2026-09-04T07:20:19Z</time>
</trkpt>
<trkpt lat="46.406330000" lon="-72.430690000">
<ele>0</ele>
<time>2026-09-04T07:20:20Z</time>
</trkpt>
<trkpt lat="46.406000000" lon="-72.431380000">
<ele>0</ele>
<time>2026-09-04T07:20:21Z</time>
</trkpt>
<trkpt lat="46.405220000" lon="-72.432800000">
<ele>0</ele>
<time>2026-09-04T07:20:22Z</time>
</trkpt>
<trkpt lat="46.403680000" lon="-72.435470000">
<ele>0</ele>
<time>2026-09-04T07:20:23Z</time>
</trkpt>
<trkpt lat="46.403480000" lon="-72.435770000">
<ele>0</ele>
<time>2026-09-04T07:20:24Z</time>
</trkpt>
<trkpt lat="46.402930000" lon="-72.436510000">
<ele>0</ele>
<time>2026-09-04T07:20:25Z</time>
</trkpt>
<trkpt lat="46.402570000" lon="-72.436940000">
<ele>0</ele>
<time>2026-09-04T07:20:26Z</time>
</trkpt>
<trkpt lat="46.402570000" lon="-72.436940000">
<ele>0</ele>
<time>2026-09-04T07:20:27Z</time>
</trkpt>
<trkpt lat="46.401050000" lon="-72.438650000">
<ele>0</ele>
<time>2026-09-04T07:20:28Z</time>
</trkpt>
<trkpt lat="46.400570000" lon="-72.439200000">
<ele>0</ele>
<time>2026-09-04T07:20:29Z</time>
</trkpt>
<trkpt lat="46.400320000" lon="-72.439550000">
<ele>0</ele>
<time>2026-09-04T07:20:30Z</time>
</trkpt>
<trkpt lat="46.399850000" lon="-72.440190000">
<ele>0</ele>
<time>2026-09-04T07:20:31Z</time>
</trkpt>
<trkpt lat="46.399430000" lon="-72.440890000">
<ele>0</ele>
<time>2026-09-04T07:20:32Z</time>
</trkpt>
<trkpt lat="46.397840000" lon="-72.443830000">
<ele>0</ele>
<time>2026-09-04T07:20:33Z</time>
</trkpt>
<trkpt lat="46.397390000" lon="-72.444830000">
<ele>0</ele>
<time>2026-09-04T07:20:34Z</time>
</trkpt>
<trkpt lat="46.397000000" lon="-72.445960000">
<ele>0</ele>
<time>2026-09-04T07:20:35Z</time>
</trkpt>
<trkpt lat="46.396740000" lon="-72.446880000">
<ele>0</ele>
<time>2026-09-04T07:20:36Z</time>
</trkpt>
<trkpt lat="46.396620000" lon="-72.447360000">
<ele>0</ele>
<time>2026-09-04T07:20:37Z</time>
</trkpt>
<trkpt lat="46.396320000" lon="-72.448880000">
<ele>0</ele>
<time>2026-09-04T07:20:38Z</time>
</trkpt>
<trkpt lat="46.396790000" lon="-72.449250000">
<ele>0</ele>
<time>2026-09-04T07:20:39Z</time>
</trkpt>
<trkpt lat="46.397040000" lon="-72.449530000">
<ele>0</ele>
<time>2026-09-04T07:20:40Z</time>
</trkpt>
<trkpt lat="46.398610000" lon="-72.451760000">
<ele>0</ele>
<time>2026-09-04T07:20:41Z</time>
</trkpt>
<trkpt lat="46.404050000" lon="-72.459530000">
<ele>0</ele>
<time>2026-09-04T07:20:42Z</time>
</trkpt>
<trkpt lat="46.408940000" lon="-72.466400000">
<ele>0</ele>
<time>2026-09-04T07:20:43Z</time>
</trkpt>
<trkpt lat="46.408940000" lon="-72.466400000">
<ele>0</ele>
<time>2026-09-04T07:20:44Z</time>
</trkpt>
<trkpt lat="46.409630000" lon="-72.467360000">
<ele>0</ele>
<time>2026-09-04T07:20:45Z</time>
</trkpt>
<trkpt lat="46.410840000" lon="-72.468940000">
<ele>0</ele>
<time>2026-09-04T07:20:46Z</time>
</trkpt>
<trkpt lat="46.409440000" lon="-72.474290000">
<ele>0</ele>
<time>2026-09-04T07:20:47Z</time>
</trkpt>
<trkpt lat="46.408850000" lon="-72.476540000">
<ele>0</ele>
<time>2026-09-04T07:20:48Z</time>
</trkpt>
<trkpt lat="46.408540000" lon="-72.478060000">
<ele>0</ele>
<time>2026-09-04T07:20:49Z</time>
</trkpt>
<trkpt lat="46.408280000" lon="-72.479330000">
<ele>0</ele>
<time>2026-09-04T07:20:50Z</time>
</trkpt>
<trkpt lat="46.407560000" lon="-72.483210000">
<ele>0</ele>
<time>2026-09-04T07:20:51Z</time>
</trkpt>
<trkpt lat="46.407560000" lon="-72.483210000">
<ele>0</ele>
<time>2026-09-04T07:20:52Z</time>
</trkpt>
<trkpt lat="46.407460000" lon="-72.483580000">
<ele>0</ele>
<time>2026-09-04T07:20:53Z</time>
</trkpt>
<trkpt lat="46.407340000" lon="-72.484030000">
<ele>0</ele>
<time>2026-09-04T07:20:54Z</time>
</trkpt>
<trkpt lat="46.407170000" lon="-72.484480000">
<ele>0</ele>
<time>2026-09-04T07:20:55Z</time>
</trkpt>
<trkpt lat="46.406440000" lon="-72.486210000">
<ele>0</ele>
<time>2026-09-04T07:20:56Z</time>
</trkpt>
<trkpt lat="46.405980000" lon="-72.487280000">
<ele>0</ele>
<time>2026-09-04T07:20:57Z</time>
</trkpt>
<trkpt lat="46.405650000" lon="-72.487870000">
<ele>0</ele>
<time>2026-09-04T07:20:58Z</time>
</trkpt>
<trkpt lat="46.404990000" lon="-72.489160000">
<ele>0</ele>
<time>2026-09-04T07:20:59Z</time>
</trkpt>
<trkpt lat="46.403430000" lon="-72.492470000">
<ele>0</ele>
<time>2026-09-04T07:21:00Z</time>
</trkpt>
<trkpt lat="46.402680000" lon="-72.494100000">
<ele>0</ele>
<time>2026-09-04T07:21:01Z</time>
</trkpt>
<trkpt lat="46.402360000" lon="-72.494800000">
<ele>0</ele>
<time>2026-09-04T07:21:02Z</time>
</trkpt>
<trkpt lat="46.401670000" lon="-72.496190000">
<ele>0</ele>
<time>2026-09-04T07:21:03Z</time>
</trkpt>
<trkpt lat="46.400980000" lon="-72.497350000">
<ele>0</ele>
<time>2026-09-04T07:21:04Z</time>
</trkpt>
<trkpt lat="46.399280000" lon="-72.500020000">
<ele>0</ele>
<time>2026-09-04T07:21:05Z</time>
</trkpt>
<trkpt lat="46.398470000" lon="-72.501460000">
<ele>0</ele>
<time>2026-09-04T07:21:06Z</time>
</trkpt>
<trkpt lat="46.398150000" lon="-72.502190000">
<ele>0</ele>
<time>2026-09-04T07:21:07Z</time>
</trkpt>
<trkpt lat="46.397130000" lon="-72.505400000">
<ele>0</ele>
<time>2026-09-04T07:21:08Z</time>
</trkpt>
<trkpt lat="46.396950000" lon="-72.505870000">
<ele>0</ele>
<time>2026-09-04T07:21:09Z</time>
</trkpt>
<trkpt lat="46.396720000" lon="-72.506280000">
<ele>0</ele>
<time>2026-09-04T07:21:10Z</time>
</trkpt>
<trkpt lat="46.396450000" lon="-72.506690000">
<ele>0</ele>
<time>2026-09-04T07:21:11Z</time>
</trkpt>
<trkpt lat="46.396190000" lon="-72.507020000">
<ele>0</ele>
<time>2026-09-04T07:21:12Z</time>
</trkpt>
<trkpt lat="46.395470000" lon="-72.507600000">
<ele>0</ele>
<time>2026-09-04T07:21:13Z</time>
</trkpt>
<trkpt lat="46.394160000" lon="-72.508520000">
<ele>0</ele>
<time>2026-09-04T07:21:14Z</time>
</trkpt>
<trkpt lat="46.392570000" lon="-72.510000000">
<ele>0</ele>
<time>2026-09-04T07:21:15Z</time>
</trkpt>
<trkpt lat="46.391980000" lon="-72.510600000">
<ele>0</ele>
<time>2026-09-04T07:21:16Z</time>
</trkpt>
<trkpt lat="46.391350000" lon="-72.511140000">
<ele>0</ele>
<time>2026-09-04T07:21:17Z</time>
</trkpt>
<trkpt lat="46.390720000" lon="-72.511650000">
<ele>0</ele>
<time>2026-09-04T07:21:18Z</time>
</trkpt>
<trkpt lat="46.390580000" lon="-72.511800000">
<ele>0</ele>
<time>2026-09-04T07:21:19Z</time>
</trkpt>
<trkpt lat="46.387210000" lon="-72.514540000">
<ele>0</ele>
<time>2026-09-04T07:21:20Z</time>
</trkpt>
<trkpt lat="46.386970000" lon="-72.514740000">
<ele>0</ele>
<time>2026-09-04T07:21:21Z</time>
</trkpt>
<trkpt lat="46.386970000" lon="-72.514740000">
<ele>0</ele>
<time>2026-09-04T07:21:22Z</time>
</trkpt>
<trkpt lat="46.386650000" lon="-72.515000000">
<ele>0</ele>
<time>2026-09-04T07:21:23Z</time>
</trkpt>
<trkpt lat="46.386360000" lon="-72.515300000">
<ele>0</ele>
<time>2026-09-04T07:21:24Z</time>
</trkpt>
<trkpt lat="46.386040000" lon="-72.515740000">
<ele>0</ele>
<time>2026-09-04T07:21:25Z</time>
</trkpt>
<trkpt lat="46.385620000" lon="-72.516440000">
<ele>0</ele>
<time>2026-09-04T07:21:26Z</time>
</trkpt>
<trkpt lat="46.385380000" lon="-72.516110000">
<ele>0</ele>
<time>2026-09-04T07:21:27Z</time>
</trkpt>
<trkpt lat="46.385020000" lon="-72.515610000">
<ele>0</ele>
<time>2026-09-04T07:21:28Z</time>
</trkpt>
<trkpt lat="46.384880000" lon="-72.515340000">
<ele>0</ele>
<time>2026-09-04T07:21:29Z</time>
</trkpt>
<trkpt lat="46.384790000" lon="-72.515130000">
<ele>0</ele>
<time>2026-09-04T07:21:30Z</time>
</trkpt>
<trkpt lat="46.384280000" lon="-72.513680000">
<ele>0</ele>
<time>2026-09-04T07:21:31Z</time>
</trkpt>
<trkpt lat="46.384240000" lon="-72.513580000">
<ele>0</ele>
<time>2026-09-04T07:21:32Z</time>
</trkpt>
<trkpt lat="46.384240000" lon="-72.513580000">
<ele>0</ele>
<time>2026-09-04T07:21:33Z</time>
</trkpt>
<trkpt lat="46.383790000" lon="-72.512360000">
<ele>0</ele>
<time>2026-09-04T07:21:34Z</time>
</trkpt>
<trkpt lat="46.383550000" lon="-72.511940000">
<ele>0</ele>
<time>2026-09-04T07:21:35Z</time>
</trkpt>
<trkpt lat="46.380920000" lon="-72.508290000">
<ele>0</ele>
<time>2026-09-04T07:21:36Z</time>
</trkpt>
<trkpt lat="46.380450000" lon="-72.507590000">
<ele>0</ele>
<time>2026-09-04T07:21:37Z</time>
</trkpt>
<trkpt lat="46.380270000" lon="-72.507280000">
<ele>0</ele>
<time>2026-09-04T07:21:38Z</time>
</trkpt>
<trkpt lat="46.380150000" lon="-72.507000000">
<ele>0</ele>
<time>2026-09-04T07:21:39Z</time>
</trkpt>
<trkpt lat="46.380020000" lon="-72.506570000">
<ele>0</ele>
<time>2026-09-04T07:21:40Z</time>
</trkpt>
<trkpt lat="46.379830000" lon="-72.506040000">
<ele>0</ele>
<time>2026-09-04T07:21:41Z</time>
</trkpt>
<trkpt lat="46.379730000" lon="-72.505810000">
<ele>0</ele>
<time>2026-09-04T07:21:42Z</time>
</trkpt>
<trkpt lat="46.379420000" lon="-72.505360000">
<ele>0</ele>
<time>2026-09-04T07:21:43Z</time>
</trkpt>
<trkpt lat="46.379010000" lon="-72.504780000">
<ele>0</ele>
<time>2026-09-04T07:21:44Z</time>
</trkpt>
<trkpt lat="46.379010000" lon="-72.504780000">
<ele>0</ele>
<time>2026-09-04T07:21:45Z</time>
</trkpt>
<trkpt lat="46.376250000" lon="-72.500920000">
<ele>0</ele>
<time>2026-09-04T07:21:46Z</time>
</trkpt>
<trkpt lat="46.375980000" lon="-72.500580000">
<ele>0</ele>
<time>2026-09-04T07:21:47Z</time>
</trkpt>
<trkpt lat="46.375780000" lon="-72.500380000">
<ele>0</ele>
<time>2026-09-04T07:21:48Z</time>
</trkpt>
<trkpt lat="46.375460000" lon="-72.500210000">
<ele>0</ele>
<time>2026-09-04T07:21:49Z</time>
</trkpt>
<trkpt lat="46.375290000" lon="-72.500140000">
<ele>0</ele>
<time>2026-09-04T07:21:50Z</time>
</trkpt>
<trkpt lat="46.374610000" lon="-72.500080000">
<ele>0</ele>
<time>2026-09-04T07:21:51Z</time>
</trkpt>
<trkpt lat="46.374400000" lon="-72.500060000">
<ele>0</ele>
<time>2026-09-04T07:21:52Z</time>
</trkpt>
<trkpt lat="46.374120000" lon="-72.499990000">
<ele>0</ele>
<time>2026-09-04T07:21:53Z</time>
</trkpt>
<trkpt lat="46.373880000" lon="-72.499880000">
<ele>0</ele>
<time>2026-09-04T07:21:54Z</time>
</trkpt>
<trkpt lat="46.373670000" lon="-72.499740000">
<ele>0</ele>
<time>2026-09-04T07:21:55Z</time>
</trkpt>
<trkpt lat="46.373370000" lon="-72.499430000">
<ele>0</ele>
<time>2026-09-04T07:21:56Z</time>
</trkpt>
<trkpt lat="46.372550000" lon="-72.498220000">
<ele>0</ele>
<time>2026-09-04T07:21:57Z</time>
</trkpt>
<trkpt lat="46.372150000" lon="-72.497630000">
<ele>0</ele>
<time>2026-09-04T07:21:58Z</time>
</trkpt>
<trkpt lat="46.372150000" lon="-72.497630000">
<ele>0</ele>
<time>2026-09-04T07:21:59Z</time>
</trkpt>
<trkpt lat="46.371940000" lon="-72.497310000">
<ele>0</ele>
<time>2026-09-04T07:22:00Z</time>
</trkpt>
<trkpt lat="46.371760000" lon="-72.497520000">
<ele>0</ele>
<time>2026-09-04T07:22:01Z</time>
</trkpt>
<trkpt lat="46.371720000" lon="-72.497540000">
<ele>0</ele>
<time>2026-09-04T07:22:02Z</time>
</trkpt>
<trkpt lat="46.371720000" lon="-72.497540000">
<ele>0</ele>
<time>2026-09-04T07:22:03Z</time>
</trkpt>
<trkpt lat="46.371370000" lon="-72.497830000">
<ele>0</ele>
<time>2026-09-04T07:22:04Z</time>
</trkpt>
<trkpt lat="46.371130000" lon="-72.497930000">
<ele>0</ele>
<time>2026-09-04T07:22:05Z</time>
</trkpt>
<trkpt lat="46.370780000" lon="-72.498010000">
<ele>0</ele>
<time>2026-09-04T07:22:06Z</time>
</trkpt>
<trkpt lat="46.370360000" lon="-72.498090000">
<ele>0</ele>
<time>2026-09-04T07:22:07Z</time>
</trkpt>
<trkpt lat="46.370110000" lon="-72.498180000">
<ele>0</ele>
<time>2026-09-04T07:22:08Z</time>
</trkpt>
<trkpt lat="46.369600000" lon="-72.498420000">
<ele>0</ele>
<time>2026-09-04T07:22:09Z</time>
</trkpt>
<trkpt lat="46.368800000" lon="-72.498860000">
<ele>0</ele>
<time>2026-09-04T07:22:10Z</time>
</trkpt>
<trkpt lat="46.368510000" lon="-72.499050000">
<ele>0</ele>
<time>2026-09-04T07:22:11Z</time>
</trkpt>
<trkpt lat="46.368370000" lon="-72.499170000">
<ele>0</ele>
<time>2026-09-04T07:22:12Z</time>
</trkpt>
<trkpt lat="46.368210000" lon="-72.499300000">
<ele>0</ele>
<time>2026-09-04T07:22:13Z</time>
</trkpt>
<trkpt lat="46.367620000" lon="-72.500030000">
<ele>0</ele>
<time>2026-09-04T07:22:14Z</time>
</trkpt>
<trkpt lat="46.366810000" lon="-72.500970000">
<ele>0</ele>
<time>2026-09-04T07:22:15Z</time>
</trkpt>
<trkpt lat="46.366810000" lon="-72.500970000">
<ele>0</ele>
<time>2026-09-04T07:22:16Z</time>
</trkpt>
<trkpt lat="46.366690000" lon="-72.501100000">
<ele>0</ele>
<time>2026-09-04T07:22:17Z</time>
</trkpt>
<trkpt lat="46.366580000" lon="-72.501160000">
<ele>0</ele>
<time>2026-09-04T07:22:18Z</time>
</trkpt>
<trkpt lat="46.366400000" lon="-72.501220000">
<ele>0</ele>
<time>2026-09-04T07:22:19Z</time>
</trkpt>
<trkpt lat="46.366140000" lon="-72.501250000">
<ele>0</ele>
<time>2026-09-04T07:22:20Z</time>
</trkpt>
<trkpt lat="46.365680000" lon="-72.501250000">
<ele>0</ele>
<time>2026-09-04T07:22:21Z</time>
</trkpt>
<trkpt lat="46.364770000" lon="-72.501220000">
<ele>0</ele>
<time>2026-09-04T07:22:22Z</time>
</trkpt>
<trkpt lat="46.364490000" lon="-72.501330000">
<ele>0</ele>
<time>2026-09-04T07:22:23Z</time>
</trkpt>
<trkpt lat="46.362970000" lon="-72.502250000">
<ele>0</ele>
<time>2026-09-04T07:22:24Z</time>
</trkpt>
<trkpt lat="46.362620000" lon="-72.502550000">
<ele>0</ele>
<time>2026-09-04T07:22:25Z</time>
</trkpt>
<trkpt lat="46.362510000" lon="-72.502670000">
<ele>0</ele>
<time>2026-09-04T07:22:26Z</time>
</trkpt>
<trkpt lat="46.362300000" lon="-72.502980000">
<ele>0</ele>
<time>2026-09-04T07:22:27Z</time>
</trkpt>
<trkpt lat="46.361860000" lon="-72.503690000">
<ele>0</ele>
<time>2026-09-04T07:22:28Z</time>
</trkpt>
<trkpt lat="46.361720000" lon="-72.503880000">
<ele>0</ele>
<time>2026-09-04T07:22:29Z</time>
</trkpt>
<trkpt lat="46.361440000" lon="-72.504320000">
<ele>0</ele>
<time>2026-09-04T07:22:30Z</time>
</trkpt>
<trkpt lat="46.361430000" lon="-72.504350000">
<ele>0</ele>
<time>2026-09-04T07:22:31Z</time>
</trkpt>
<trkpt lat="46.361220000" lon="-72.504740000">
<ele>0</ele>
<time>2026-09-04T07:22:32Z</time>
</trkpt>
<trkpt lat="46.360780000" lon="-72.505640000">
<ele>0</ele>
<time>2026-09-04T07:22:33Z</time>
</trkpt>
<trkpt lat="46.360320000" lon="-72.506600000">
<ele>0</ele>
<time>2026-09-04T07:22:34Z</time>
</trkpt>
<trkpt lat="46.360000000" lon="-72.507360000">
<ele>0</ele>
<time>2026-09-04T07:22:35Z</time>
</trkpt>
<trkpt lat="46.359710000" lon="-72.508200000">
<ele>0</ele>
<time>2026-09-04T07:22:36Z</time>
</trkpt>
<trkpt lat="46.359650000" lon="-72.508720000">
<ele>0</ele>
<time>2026-09-04T07:22:37Z</time>
</trkpt>
<trkpt lat="46.359650000" lon="-72.508720000">
<ele>0</ele>
<time>2026-09-04T07:22:38Z</time>
</trkpt>
<trkpt lat="46.359560000" lon="-72.510780000">
<ele>0</ele>
<time>2026-09-04T07:22:39Z</time>
</trkpt>
<trkpt lat="46.359630000" lon="-72.512220000">
<ele>0</ele>
<time>2026-09-04T07:22:40Z</time>
</trkpt>
<trkpt lat="46.359890000" lon="-72.513020000">
<ele>0</ele>
<time>2026-09-04T07:22:41Z</time>
</trkpt>
<trkpt lat="46.359990000" lon="-72.513450000">
<ele>0</ele>
<time>2026-09-04T07:22:42Z</time>
</trkpt>
<trkpt lat="46.359980000" lon="-72.513640000">
<ele>0</ele>
<time>2026-09-04T07:22:43Z</time>
</trkpt>
<trkpt lat="46.360070000" lon="-72.514450000">
<ele>0</ele>
<time>2026-09-04T07:22:44Z</time>
</trkpt>
<trkpt lat="46.360180000" lon="-72.515040000">
<ele>0</ele>
<time>2026-09-04T07:22:45Z</time>
</trkpt>
<trkpt lat="46.360200000" lon="-72.515210000">
<ele>0</ele>
<time>2026-09-04T07:22:46Z</time>
</trkpt>
<trkpt lat="46.360200000" lon="-72.516050000">
<ele>0</ele>
<time>2026-09-04T07:22:47Z</time>
</trkpt>
<trkpt lat="46.360220000" lon="-72.516350000">
<ele>0</ele>
<time>2026-09-04T07:22:48Z</time>
</trkpt>
<trkpt lat="46.360390000" lon="-72.517160000">
<ele>0</ele>
<time>2026-09-04T07:22:49Z</time>
</trkpt>
<trkpt lat="46.360390000" lon="-72.517160000">
<ele>0</ele>
<time>2026-09-04T07:22:50Z</time>
</trkpt>
<trkpt lat="46.360650000" lon="-72.518450000">
<ele>0</ele>
<time>2026-09-04T07:22:51Z</time>
</trkpt>
<trkpt lat="46.360840000" lon="-72.519250000">
<ele>0</ele>
<time>2026-09-04T07:22:52Z</time>
</trkpt>
<trkpt lat="46.360900000" lon="-72.519400000">
<ele>0</ele>
<time>2026-09-04T07:22:53Z</time>
</trkpt>
<trkpt lat="46.361280000" lon="-72.520010000">
<ele>0</ele>
<time>2026-09-04T07:22:54Z</time>
</trkpt>
<trkpt lat="46.361460000" lon="-72.520370000">
<ele>0</ele>
<time>2026-09-04T07:22:55Z</time>
</trkpt>
<trkpt lat="46.361550000" lon="-72.520490000">
<ele>0</ele>
<time>2026-09-04T07:22:56Z</time>
</trkpt>
<trkpt lat="46.361650000" lon="-72.521050000">
<ele>0</ele>
<time>2026-09-04T07:22:57Z</time>
</trkpt>
<trkpt lat="46.361650000" lon="-72.521050000">
<ele>0</ele>
<time>2026-09-04T07:22:58Z</time>
</trkpt>
<trkpt lat="46.361770000" lon="-72.521540000">
<ele>0</ele>
<time>2026-09-04T07:22:59Z</time>
</trkpt>
<trkpt lat="46.362230000" lon="-72.522960000">
<ele>0</ele>
<time>2026-09-04T07:23:00Z</time>
</trkpt>
<trkpt lat="46.362290000" lon="-72.523160000">
<ele>0</ele>
<time>2026-09-04T07:23:01Z</time>
</trkpt>
<trkpt lat="46.362690000" lon="-72.524750000">
<ele>0</ele>
<time>2026-09-04T07:23:02Z</time>
</trkpt>
<trkpt lat="46.363110000" lon="-72.527100000">
<ele>0</ele>
<time>2026-09-04T07:23:03Z</time>
</trkpt>
<trkpt lat="46.363400000" lon="-72.528850000">
<ele>0</ele>
<time>2026-09-04T07:23:04Z</time>
</trkpt>
<trkpt lat="46.363440000" lon="-72.529070000">
<ele>0</ele>
<time>2026-09-04T07:23:05Z</time>
</trkpt>
<trkpt lat="46.363440000" lon="-72.529070000">
<ele>0</ele>
<time>2026-09-04T07:23:06Z</time>
</trkpt>
<trkpt lat="46.363550000" lon="-72.529520000">
<ele>0</ele>
<time>2026-09-04T07:23:07Z</time>
</trkpt>
<trkpt lat="46.363720000" lon="-72.529780000">
<ele>0</ele>
<time>2026-09-04T07:23:08Z</time>
</trkpt>
<trkpt lat="46.363410000" lon="-72.530220000">
<ele>0</ele>
<time>2026-09-04T07:23:09Z</time>
</trkpt>
<trkpt lat="46.363410000" lon="-72.530220000">
<ele>0</ele>
<time>2026-09-04T07:23:10Z</time>
</trkpt>
<trkpt lat="46.362430000" lon="-72.531580000">
<ele>0</ele>
<time>2026-09-04T07:23:11Z</time>
</trkpt>
<trkpt lat="46.360340000" lon="-72.534250000">
<ele>0</ele>
<time>2026-09-04T07:23:12Z</time>
</trkpt>
<trkpt lat="46.357840000" lon="-72.537430000">
<ele>0</ele>
<time>2026-09-04T07:23:13Z</time>
</trkpt>
<trkpt lat="46.357840000" lon="-72.537430000">
<ele>0</ele>
<time>2026-09-04T07:23:14Z</time>
</trkpt>
<trkpt lat="46.356740000" lon="-72.538820000">
<ele>0</ele>
<time>2026-09-04T07:23:15Z</time>
</trkpt>
<trkpt lat="46.356320000" lon="-72.539400000">
<ele>0</ele>
<time>2026-09-04T07:23:16Z</time>
</trkpt>
<trkpt lat="46.356090000" lon="-72.539720000">
<ele>0</ele>
<time>2026-09-04T07:23:17Z</time>
</trkpt>
<trkpt lat="46.355720000" lon="-72.539380000">
<ele>0</ele>
<time>2026-09-04T07:23:18Z</time>
</trkpt>
<trkpt lat="46.355720000" lon="-72.539380000">
<ele>0</ele>
<time>2026-09-04T07:23:19Z</time>
</trkpt>
<trkpt lat="46.355030000" lon="-72.538770000">
<ele>0</ele>
<time>2026-09-04T07:23:20Z</time>
</trkpt>
<trkpt lat="46.354590000" lon="-72.538300000">
<ele>0</ele>
<time>2026-09-04T07:23:21Z</time>
</trkpt>
<trkpt lat="46.353840000" lon="-72.537850000">
<ele>0</ele>
<time>2026-09-04T07:23:22Z</time>
</trkpt>
<trkpt lat="46.352420000" lon="-72.536870000">
<ele>0</ele>
<time>2026-09-04T07:23:23Z</time>
</trkpt>
<trkpt lat="46.352290000" lon="-72.536780000">
<ele>0</ele>
<time>2026-09-04T07:23:24Z</time>
</trkpt>
<trkpt lat="46.352180000" lon="-72.536740000">
<ele>0</ele>
<time>2026-09-04T07:23:25Z</time>
</trkpt>
<trkpt lat="46.352100000" lon="-72.536760000">
<ele>0</ele>
<time>2026-09-04T07:23:26Z</time>
</trkpt>
<trkpt lat="46.352030000" lon="-72.536820000">
<ele>0</ele>
<time>2026-09-04T07:23:27Z</time>
</trkpt>
<trkpt lat="46.351970000" lon="-72.536930000">
<ele>0</ele>
<time>2026-09-04T07:23:28Z</time>
</trkpt>
<trkpt lat="46.351470000" lon="-72.537810000">
<ele>0</ele>
<time>2026-09-04T07:23:29Z</time>
</trkpt>
<trkpt lat="46.351360000" lon="-72.537930000">
<ele>0</ele>
<time>2026-09-04T07:23:30Z</time>
</trkpt>
<trkpt lat="46.351360000" lon="-72.537930000">
<ele>0</ele>
<time>2026-09-04T07:23:31Z</time>
</trkpt>
<trkpt lat="46.351260000" lon="-72.537960000">
<ele>0</ele>
<time>2026-09-04T07:23:32Z</time>
</trkpt>
<trkpt lat="46.351150000" lon="-72.537950000">
<ele>0</ele>
<time>2026-09-04T07:23:33Z</time>
</trkpt>
<trkpt lat="46.351030000" lon="-72.537840000">
<ele>0</ele>
<time>2026-09-04T07:23:34Z</time>
</trkpt>
<trkpt lat="46.350780000" lon="-72.537350000">
<ele>0</ele>
<time>2026-09-04T07:23:35Z</time>
</trkpt>
<trkpt lat="46.349550000" lon="-72.535930000">
<ele>0</ele>
<time>2026-09-04T07:23:36Z</time>
</trkpt>
<trkpt lat="46.348820000" lon="-72.535090000">
<ele>0</ele>
<time>2026-09-04T07:23:37Z</time>
</trkpt>
</trkseg>
</trk>
</gpx>
